sensor_id;sensor_type;location;lat;lon;timestamp;P1;durP1;ratioP1;P2;durP2;ratioP2
37131;SDS011;23035;50.032;21.978;2023-05-21T00:02:11;12.82;;;6.53;;
37131;SDS011;23035;50.032;21.978;2023-05-21T00:07:18;16.13;;;6.07;;
37131;SDS011;23035;50.032;21.978;2023-05-21T00:17:26;11.38;;;6.85;;
37131;SDS011;23035;50.032;21.978;2023-05-21T00:22:31;10.82;;;6.78;;
37131;SDS011;23035;50.032;21.978;2023-05-21T00:27:37;10.75;;;5.95;;
37131;SDS011;23035;50.032;21.978;2023-05-21T00:32:41;9.52;;;6.47;;
37131;SDS011;23035;50.032;21.978;2023-05-21T00:37:47;12.93;;;6.15;;
37131;SDS011;23035;50.032;21.978;2023-05-21T00:42:52;11.75;;;5.90;;
37131;SDS011;23035;50.032;21.978;2023-05-21T00:47:58;11.80;;;6.13;;
37131;SDS011;23035;50.032;21.978;2023-05-21T00:53:05;10.02;;;5.85;;
37131;SDS011;23035;50.032;21.978;2023-05-21T00:58:11;13.00;;;6.15;;
37131;SDS011;23035;50.032;21.978;2023-05-21T01:03:15;10.63;;;5.72;;
37131;SDS011;23035;50.032;21.978;2023-05-21T01:08:21;11.25;;;5.30;;
37131;SDS011;23035;50.032;21.978;2023-05-21T01:13:25;12.57;;;5.75;;
37131;SDS011;23035;50.032;21.978;2023-05-21T01:18:30;10.43;;;5.40;;
37131;SDS011;23035;50.032;21.978;2023-05-21T01:23:38;13.82;;;5.97;;
37131;SDS011;23035;50.032;21.978;2023-05-21T01:33:46;10.73;;;6.00;;
37131;SDS011;23035;50.032;21.978;2023-05-21T01:38:56;9.77;;;5.72;;
37131;SDS011;23035;50.032;21.978;2023-05-21T01:44:05;7.20;;;5.05;;
37131;SDS011;23035;50.032;21.978;2023-05-21T01:49:12;12.80;;;5.22;;
37131;SDS011;23035;50.032;21.978;2023-05-21T01:54:19;13.30;;;5.90;;
37131;SDS011;23035;50.032;21.978;2023-05-21T01:59:25;12.93;;;5.47;;
37131;SDS011;23035;50.032;21.978;2023-05-21T02:04:31;9.07;;;4.85;;
37131;SDS011;23035;50.032;21.978;2023-05-21T02:09:36;9.63;;;5.50;;
37131;SDS011;23035;50.032;21.978;2023-05-21T02:19:44;14.77;;;5.43;;
37131;SDS011;23035;50.032;21.978;2023-05-21T02:24:50;10.15;;;5.85;;
37131;SDS011;23035;50.032;21.978;2023-05-21T02:29:54;13.52;;;6.00;;
37131;SDS011;23035;50.032;21.978;2023-05-21T02:34:58;15.75;;;6.18;;
37131;SDS011;23035;50.032;21.978;2023-05-21T02:40:05;13.10;;;7.88;;
37131;SDS011;23035;50.032;21.978;2023-05-21T02:45:11;32.85;;;11.00;;
37131;SDS011;23035;50.032;21.978;2023-05-21T02:50:17;16.48;;;8.15;;
37131;SDS011;23035;50.032;21.978;2023-05-21T02:55:34;16.08;;;8.27;;
37131;SDS011;23035;50.032;21.978;2023-05-21T03:00:38;13.85;;;6.35;;
37131;SDS011;23035;50.032;21.978;2023-05-21T03:05:43;14.63;;;6.90;;
37131;SDS011;23035;50.032;21.978;2023-05-21T03:10:49;12.70;;;7.23;;
37131;SDS011;23035;50.032;21.978;2023-05-21T03:15:53;14.13;;;6.30;;
37131;SDS011;23035;50.032;21.978;2023-05-21T03:20:57;13.23;;;7.45;;
37131;SDS011;23035;50.032;21.978;2023-05-21T03:26:04;10.23;;;6.07;;
37131;SDS011;23035;50.032;21.978;2023-05-21T03:31:08;14.93;;;6.38;;
37131;SDS011;23035;50.032;21.978;2023-05-21T03:36:13;12.60;;;5.60;;
37131;SDS011;23035;50.032;21.978;2023-05-21T03:41:18;11.23;;;5.78;;
37131;SDS011;23035;50.032;21.978;2023-05-21T03:46:28;10.80;;;5.35;;
37131;SDS011;23035;50.032;21.978;2023-05-21T03:51:42;12.57;;;5.45;;
37131;SDS011;23035;50.032;21.978;2023-05-21T03:56:51;9.82;;;5.43;;
37131;SDS011;23035;50.032;21.978;2023-05-21T04:01:56;11.32;;;4.72;;
37131;SDS011;23035;50.032;21.978;2023-05-21T04:07:00;12.43;;;5.50;;
37131;SDS011;23035;50.032;21.978;2023-05-21T04:12:07;10.77;;;5.40;;
37131;SDS011;23035;50.032;21.978;2023-05-21T04:17:11;9.15;;;4.82;;
37131;SDS011;23035;50.032;21.978;2023-05-21T04:22:16;10.20;;;4.95;;
37131;SDS011;23035;50.032;21.978;2023-05-21T04:27:21;13.85;;;5.88;;
37131;SDS011;23035;50.032;21.978;2023-05-21T04:32:26;12.90;;;5.10;;
37131;SDS011;23035;50.032;21.978;2023-05-21T04:37:32;11.32;;;4.85;;
37131;SDS011;23035;50.032;21.978;2023-05-21T04:42:38;12.50;;;5.35;;
37131;SDS011;23035;50.032;21.978;2023-05-21T04:47:43;9.57;;;4.47;;
37131;SDS011;23035;50.032;21.978;2023-05-21T04:52:47;9.68;;;5.18;;
37131;SDS011;23035;50.032;21.978;2023-05-21T04:57:53;8.70;;;5.32;;
37131;SDS011;23035;50.032;21.978;2023-05-21T05:02:57;9.43;;;4.13;;
37131;SDS011;23035;50.032;21.978;2023-05-21T05:08:01;7.38;;;4.38;;
37131;SDS011;23035;50.032;21.978;2023-05-21T05:13:06;8.60;;;4.40;;
37131;SDS011;23035;50.032;21.978;2023-05-21T05:18:11;8.73;;;4.68;;
37131;SDS011;23035;50.032;21.978;2023-05-21T05:23:15;8.10;;;4.03;;
37131;SDS011;23035;50.032;21.978;2023-05-21T05:28:21;6.82;;;4.22;;
37131;SDS011;23035;50.032;21.978;2023-05-21T05:38:32;15.10;;;4.78;;
37131;SDS011;23035;50.032;21.978;2023-05-21T05:43:38;7.32;;;4.80;;
37131;SDS011;23035;50.032;21.978;2023-05-21T05:48:43;8.50;;;4.95;;
37131;SDS011;23035;50.032;21.978;2023-05-21T05:53:47;11.77;;;4.82;;
37131;SDS011;23035;50.032;21.978;2023-05-21T05:58:53;9.32;;;5.10;;
37131;SDS011;23035;50.032;21.978;2023-05-21T06:09:03;12.13;;;5.38;;
37131;SDS011;23035;50.032;21.978;2023-05-21T06:14:09;10.50;;;5.00;;
37131;SDS011;23035;50.032;21.978;2023-05-21T06:19:13;6.25;;;4.25;;
37131;SDS011;23035;50.032;21.978;2023-05-21T06:24:17;11.02;;;4.45;;
37131;SDS011;23035;50.032;21.978;2023-05-21T06:29:22;13.23;;;4.47;;
37131;SDS011;23035;50.032;21.978;2023-05-21T06:34:27;10.93;;;4.85;;
37131;SDS011;23035;50.032;21.978;2023-05-21T06:39:31;12.18;;;4.50;;
37131;SDS011;23035;50.032;21.978;2023-05-21T06:44:36;12.02;;;4.35;;
37131;SDS011;23035;50.032;21.978;2023-05-21T06:49:50;10.65;;;4.57;;
37131;SDS011;23035;50.032;21.978;2023-05-21T06:54:58;11.50;;;6.35;;
37131;SDS011;23035;50.032;21.978;2023-05-21T07:00:12;16.92;;;9.27;;
37131;SDS011;23035;50.032;21.978;2023-05-21T07:05:17;20.02;;;13.63;;
37131;SDS011;23035;50.032;21.978;2023-05-21T07:10:21;10.73;;;6.45;;
37131;SDS011;23035;50.032;21.978;2023-05-21T07:15:27;12.20;;;8.50;;
37131;SDS011;23035;50.032;21.978;2023-05-21T07:20:32;13.38;;;6.70;;
37131;SDS011;23035;50.032;21.978;2023-05-21T07:25:40;11.90;;;6.45;;
37131;SDS011;23035;50.032;21.978;2023-05-21T07:30:45;13.48;;;7.15;;
37131;SDS011;23035;50.032;21.978;2023-05-21T07:35:54;6.72;;;4.72;;
37131;SDS011;23035;50.032;21.978;2023-05-21T07:40:58;6.00;;;4.40;;
37131;SDS011;23035;50.032;21.978;2023-05-21T07:46:04;8.73;;;4.63;;
37131;SDS011;23035;50.032;21.978;2023-05-21T07:51:09;7.75;;;4.32;;
37131;SDS011;23035;50.032;21.978;2023-05-21T07:56:13;12.20;;;7.77;;
37131;SDS011;23035;50.032;21.978;2023-05-21T08:01:19;12.73;;;6.55;;
37131;SDS011;23035;50.032;21.978;2023-05-21T08:06:23;9.15;;;4.22;;
37131;SDS011;23035;50.032;21.978;2023-05-21T08:11:28;13.90;;;5.10;;
37131;SDS011;23035;50.032;21.978;2023-05-21T08:16:33;12.40;;;5.13;;
37131;SDS011;23035;50.032;21.978;2023-05-21T08:21:38;11.35;;;4.75;;
37131;SDS011;23035;50.032;21.978;2023-05-21T08:26:42;9.85;;;5.45;;
37131;SDS011;23035;50.032;21.978;2023-05-21T08:31:53;9.27;;;3.58;;
37131;SDS011;23035;50.032;21.978;2023-05-21T08:36:57;12.10;;;4.45;;
37131;SDS011;23035;50.032;21.978;2023-05-21T08:42:23;7.13;;;3.63;;
37131;SDS011;23035;50.032;21.978;2023-05-21T08:47:42;6.75;;;3.80;;
37131;SDS011;23035;50.032;21.978;2023-05-21T08:52:50;8.70;;;4.47;;
37131;SDS011;23035;50.032;21.978;2023-05-21T08:57:57;16.80;;;9.63;;
37131;SDS011;23035;50.032;21.978;2023-05-21T09:08:14;8.02;;;4.75;;
37131;SDS011;23035;50.032;21.978;2023-05-21T09:13:57;10.60;;;4.28;;
37131;SDS011;23035;50.032;21.978;2023-05-21T09:25:19;17.13;;;10.45;;
37131;SDS011;23035;50.032;21.978;2023-05-21T09:30:24;6.95;;;3.75;;
37131;SDS011;23035;50.032;21.978;2023-05-21T09:35:33;10.07;;;4.57;;
37131;SDS011;23035;50.032;21.978;2023-05-21T09:40:42;8.40;;;5.43;;
37131;SDS011;23035;50.032;21.978;2023-05-21T09:45:51;6.28;;;4.60;;
37131;SDS011;23035;50.032;21.978;2023-05-21T09:51:08;8.00;;;3.90;;
37131;SDS011;23035;50.032;21.978;2023-05-21T09:56:13;9.13;;;3.15;;
37131;SDS011;23035;50.032;21.978;2023-05-21T10:01:18;7.35;;;3.63;;
37131;SDS011;23035;50.032;21.978;2023-05-21T10:06:25;6.80;;;3.65;;
37131;SDS011;23035;50.032;21.978;2023-05-21T10:11:30;4.03;;;2.78;;
37131;SDS011;23035;50.032;21.978;2023-05-21T10:16:35;9.40;;;3.70;;
37131;SDS011;23035;50.032;21.978;2023-05-21T10:21:41;7.95;;;3.20;;
37131;SDS011;23035;50.032;21.978;2023-05-21T10:26:47;6.75;;;4.25;;
37131;SDS011;23035;50.032;21.978;2023-05-21T10:31:52;9.07;;;3.40;;
37131;SDS011;23035;50.032;21.978;2023-05-21T10:36:57;5.75;;;3.17;;
37131;SDS011;23035;50.032;21.978;2023-05-21T10:42:07;11.25;;;3.40;;
37131;SDS011;23035;50.032;21.978;2023-05-21T10:52:59;10.38;;;3.75;;
37131;SDS011;23035;50.032;21.978;2023-05-21T10:58:20;6.65;;;3.53;;
37131;SDS011;23035;50.032;21.978;2023-05-21T11:03:35;10.95;;;3.22;;
37131;SDS011;23035;50.032;21.978;2023-05-21T11:13:50;8.07;;;3.72;;
37131;SDS011;23035;50.032;21.978;2023-05-21T11:19:00;9.80;;;3.30;;
37131;SDS011;23035;50.032;21.978;2023-05-21T11:24:06;10.25;;;3.70;;
37131;SDS011;23035;50.032;21.978;2023-05-21T11:29:12;10.50;;;3.70;;
37131;SDS011;23035;50.032;21.978;2023-05-21T11:34:17;5.18;;;3.28;;
37131;SDS011;23035;50.032;21.978;2023-05-21T11:39:24;8.13;;;3.47;;
37131;SDS011;23035;50.032;21.978;2023-05-21T11:44:38;7.45;;;4.88;;
37131;SDS011;23035;50.032;21.978;2023-05-21T11:49:42;7.13;;;4.80;;
37131;SDS011;23035;50.032;21.978;2023-05-21T11:54:49;9.80;;;3.60;;
37131;SDS011;23035;50.032;21.978;2023-05-21T11:59:57;5.15;;;3.33;;
37131;SDS011;23035;50.032;21.978;2023-05-21T12:05:03;7.75;;;3.33;;
37131;SDS011;23035;50.032;21.978;2023-05-21T12:15:15;3.60;;;3.13;;
37131;SDS011;23035;50.032;21.978;2023-05-21T12:20:20;6.20;;;2.92;;
37131;SDS011;23035;50.032;21.978;2023-05-21T12:25:26;6.85;;;2.90;;
37131;SDS011;23035;50.032;21.978;2023-05-21T12:30:31;7.25;;;4.05;;
37131;SDS011;23035;50.032;21.978;2023-05-21T12:35:35;5.70;;;3.38;;
37131;SDS011;23035;50.032;21.978;2023-05-21T12:40:41;5.28;;;3.05;;
37131;SDS011;23035;50.032;21.978;2023-05-21T12:45:47;8.30;;;3.47;;
37131;SDS011;23035;50.032;21.978;2023-05-21T12:50:51;9.52;;;5.72;;
37131;SDS011;23035;50.032;21.978;2023-05-21T12:55:56;7.32;;;3.45;;
37131;SDS011;23035;50.032;21.978;2023-05-21T13:01:10;5.32;;;3.70;;
37131;SDS011;23035;50.032;21.978;2023-05-21T13:06:14;7.85;;;3.45;;
37131;SDS011;23035;50.032;21.978;2023-05-21T13:11:20;9.07;;;3.40;;
37131;SDS011;23035;50.032;21.978;2023-05-21T13:16:24;7.50;;;3.05;;
37131;SDS011;23035;50.032;21.978;2023-05-21T13:21:28;4.57;;;3.20;;
37131;SDS011;23035;50.032;21.978;2023-05-21T13:26:33;3.57;;;2.73;;
37131;SDS011;23035;50.032;21.978;2023-05-21T13:31:37;5.38;;;3.25;;
37131;SDS011;23035;50.032;21.978;2023-05-21T13:36:41;5.18;;;3.08;;
37131;SDS011;23035;50.032;21.978;2023-05-21T13:41:47;5.70;;;3.30;;
37131;SDS011;23035;50.032;21.978;2023-05-21T13:46:51;5.38;;;3.70;;
37131;SDS011;23035;50.032;21.978;2023-05-21T13:51:55;9.73;;;4.10;;
37131;SDS011;23035;50.032;21.978;2023-05-21T13:57:01;7.97;;;3.35;;
37131;SDS011;23035;50.032;21.978;2023-05-21T14:02:05;3.50;;;2.90;;
37131;SDS011;23035;50.032;21.978;2023-05-21T14:07:10;6.00;;;4.07;;
37131;SDS011;23035;50.032;21.978;2023-05-21T14:12:16;9.05;;;3.22;;
37131;SDS011;23035;50.032;21.978;2023-05-21T14:17:20;8.63;;;3.88;;
37131;SDS011;23035;50.032;21.978;2023-05-21T14:22:24;4.50;;;3.20;;
37131;SDS011;23035;50.032;21.978;2023-05-21T14:27:29;8.30;;;5.30;;
37131;SDS011;23035;50.032;21.978;2023-05-21T14:32:33;4.95;;;3.53;;
37131;SDS011;23035;50.032;21.978;2023-05-21T14:37:38;10.57;;;4.45;;
37131;SDS011;23035;50.032;21.978;2023-05-21T14:42:43;9.70;;;4.53;;
37131;SDS011;23035;50.032;21.978;2023-05-21T14:47:47;11.23;;;7.43;;
37131;SDS011;23035;50.032;21.978;2023-05-21T14:52:52;4.38;;;3.35;;
37131;SDS011;23035;50.032;21.978;2023-05-21T15:03:02;4.32;;;3.60;;
37131;SDS011;23035;50.032;21.978;2023-05-21T15:08:07;5.90;;;3.25;;
37131;SDS011;23035;50.032;21.978;2023-05-21T15:18:17;7.78;;;3.60;;
37131;SDS011;23035;50.032;21.978;2023-05-21T15:23:22;5.70;;;3.30;;
37131;SDS011;23035;50.032;21.978;2023-05-21T15:28:28;4.47;;;3.25;;
37131;SDS011;23035;50.032;21.978;2023-05-21T15:33:32;5.15;;;3.28;;
37131;SDS011;23035;50.032;21.978;2023-05-21T15:38:36;11.17;;;3.73;;
37131;SDS011;23035;50.032;21.978;2023-05-21T15:43:41;8.77;;;4.40;;
37131;SDS011;23035;50.032;21.978;2023-05-21T15:48:45;6.40;;;4.75;;
37131;SDS011;23035;50.032;21.978;2023-05-21T15:53:49;6.10;;;3.50;;
37131;SDS011;23035;50.032;21.978;2023-05-21T15:58:55;5.00;;;3.43;;
37131;SDS011;23035;50.032;21.978;2023-05-21T16:04:01;4.43;;;3.17;;
37131;SDS011;23035;50.032;21.978;2023-05-21T16:09:05;5.87;;;3.80;;
37131;SDS011;23035;50.032;21.978;2023-05-21T16:14:11;9.73;;;3.40;;
37131;SDS011;23035;50.032;21.978;2023-05-21T16:19:15;3.92;;;3.00;;
37131;SDS011;23035;50.032;21.978;2023-05-21T16:24:19;7.53;;;3.87;;
37131;SDS011;23035;50.032;21.978;2023-05-21T16:29:25;6.22;;;3.22;;
37131;SDS011;23035;50.032;21.978;2023-05-21T16:34:29;10.25;;;3.42;;
37131;SDS011;23035;50.032;21.978;2023-05-21T16:39:33;4.15;;;3.10;;
37131;SDS011;23035;50.032;21.978;2023-05-21T16:44:39;4.93;;;3.30;;
37131;SDS011;23035;50.032;21.978;2023-05-21T16:49:43;8.93;;;3.13;;
37131;SDS011;23035;50.032;21.978;2023-05-21T16:54:47;8.80;;;3.83;;
37131;SDS011;23035;50.032;21.978;2023-05-21T16:59:52;5.05;;;3.38;;
37131;SDS011;23035;50.032;21.978;2023-05-21T17:04:57;4.82;;;3.70;;
37131;SDS011;23035;50.032;21.978;2023-05-21T17:10:01;4.05;;;3.30;;
37131;SDS011;23035;50.032;21.978;2023-05-21T17:15:07;6.97;;;4.13;;
37131;SDS011;23035;50.032;21.978;2023-05-21T17:20:11;9.02;;;3.25;;
37131;SDS011;23035;50.032;21.978;2023-05-21T17:25:16;4.10;;;3.20;;
37131;SDS011;23035;50.032;21.978;2023-05-21T17:30:22;6.82;;;3.20;;
37131;SDS011;23035;50.032;21.978;2023-05-21T17:40:30;5.38;;;3.22;;
37131;SDS011;23035;50.032;21.978;2023-05-21T17:45:35;5.57;;;3.50;;
37131;SDS011;23035;50.032;21.978;2023-05-21T17:50:40;6.65;;;3.92;;
37131;SDS011;23035;50.032;21.978;2023-05-21T17:55:44;10.70;;;6.93;;
37131;SDS011;23035;50.032;21.978;2023-05-21T18:00:49;10.27;;;4.53;;
37131;SDS011;23035;50.032;21.978;2023-05-21T18:10:58;15.77;;;5.97;;
37131;SDS011;23035;50.032;21.978;2023-05-21T18:21:09;4.23;;;3.60;;
37131;SDS011;23035;50.032;21.978;2023-05-21T18:26:13;5.80;;;3.23;;
37131;SDS011;23035;50.032;21.978;2023-05-21T18:31:19;4.47;;;3.60;;
37131;SDS011;23035;50.032;21.978;2023-05-21T18:41:27;14.43;;;7.65;;
37131;SDS011;23035;50.032;21.978;2023-05-21T18:46:33;11.48;;;7.35;;
37131;SDS011;23035;50.032;21.978;2023-05-21T18:51:38;8.20;;;3.88;;
37131;SDS011;23035;50.032;21.978;2023-05-21T18:56:42;13.05;;;5.65;;
37131;SDS011;23035;50.032;21.978;2023-05-21T19:01:47;6.25;;;3.83;;
37131;SDS011;23035;50.032;21.978;2023-05-21T19:06:51;11.73;;;4.53;;
37131;SDS011;23035;50.032;21.978;2023-05-21T19:11:56;8.85;;;4.10;;
37131;SDS011;23035;50.032;21.978;2023-05-21T19:17:03;8.75;;;4.72;;
37131;SDS011;23035;50.032;21.978;2023-05-21T19:22:09;8.55;;;4.20;;
37131;SDS011;23035;50.032;21.978;2023-05-21T19:27:17;9.55;;;4.43;;
37131;SDS011;23035;50.032;21.978;2023-05-21T19:32:22;6.47;;;4.45;;
37131;SDS011;23035;50.032;21.978;2023-05-21T19:42:33;8.05;;;4.25;;
37131;SDS011;23035;50.032;21.978;2023-05-21T19:47:39;12.50;;;5.00;;
37131;SDS011;23035;50.032;21.978;2023-05-21T19:52:44;11.50;;;5.90;;
37131;SDS011;23035;50.032;21.978;2023-05-21T19:57:48;8.88;;;4.80;;
37131;SDS011;23035;50.032;21.978;2023-05-21T20:02:53;8.20;;;4.68;;
37131;SDS011;23035;50.032;21.978;2023-05-21T20:07:58;7.00;;;5.00;;
37131;SDS011;23035;50.032;21.978;2023-05-21T20:13:02;6.18;;;4.90;;
37131;SDS011;23035;50.032;21.978;2023-05-21T20:18:07;10.23;;;5.20;;
37131;SDS011;23035;50.032;21.978;2023-05-21T20:28:16;8.95;;;4.88;;
37131;SDS011;23035;50.032;21.978;2023-05-21T20:33:25;11.20;;;5.78;;
37131;SDS011;23035;50.032;21.978;2023-05-21T20:38:30;8.15;;;5.13;;
37131;SDS011;23035;50.032;21.978;2023-05-21T20:43:34;7.47;;;4.55;;
37131;SDS011;23035;50.032;21.978;2023-05-21T20:48:40;10.35;;;4.57;;
37131;SDS011;23035;50.032;21.978;2023-05-21T20:53:44;6.03;;;3.55;;
37131;SDS011;23035;50.032;21.978;2023-05-21T20:58:49;10.52;;;4.50;;
37131;SDS011;23035;50.032;21.978;2023-05-21T21:03:59;8.60;;;5.13;;
37131;SDS011;23035;50.032;21.978;2023-05-21T21:09:04;7.30;;;4.43;;
37131;SDS011;23035;50.032;21.978;2023-05-21T21:14:08;8.63;;;4.32;;
37131;SDS011;23035;50.032;21.978;2023-05-21T21:19:13;7.93;;;5.47;;
37131;SDS011;23035;50.032;21.978;2023-05-21T21:29:21;6.85;;;5.03;;
37131;SDS011;23035;50.032;21.978;2023-05-21T21:34:27;6.78;;;4.55;;
37131;SDS011;23035;50.032;21.978;2023-05-21T21:39:31;7.28;;;4.72;;
37131;SDS011;23035;50.032;21.978;2023-05-21T21:44:35;6.15;;;4.50;;
37131;SDS011;23035;50.032;21.978;2023-05-21T21:49:41;6.68;;;4.68;;
37131;SDS011;23035;50.032;21.978;2023-05-21T21:54:45;9.20;;;5.15;;
37131;SDS011;23035;50.032;21.978;2023-05-21T21:59:49;7.10;;;4.80;;
37131;SDS011;23035;50.032;21.978;2023-05-21T22:04:55;9.52;;;4.88;;
37131;SDS011;23035;50.032;21.978;2023-05-21T22:09:59;16.52;;;7.72;;
37131;SDS011;23035;50.032;21.978;2023-05-21T22:15:03;11.02;;;7.82;;
37131;SDS011;23035;50.032;21.978;2023-05-21T22:20:10;10.00;;;5.38;;
37131;SDS011;23035;50.032;21.978;2023-05-21T22:30:18;9.00;;;3.85;;
37131;SDS011;23035;50.032;21.978;2023-05-21T22:35:23;5.85;;;4.35;;
37131;SDS011;23035;50.032;21.978;2023-05-21T22:40:27;6.32;;;4.43;;
37131;SDS011;23035;50.032;21.978;2023-05-21T22:45:32;10.18;;;4.45;;
37131;SDS011;23035;50.032;21.978;2023-05-21T22:50:38;9.73;;;4.68;;
37131;SDS011;23035;50.032;21.978;2023-05-21T23:00:47;6.80;;;4.15;;
37131;SDS011;23035;50.032;21.978;2023-05-21T23:05:53;7.57;;;4.20;;
37131;SDS011;23035;50.032;21.978;2023-05-21T23:10:57;8.18;;;4.38;;
37131;SDS011;23035;50.032;21.978;2023-05-21T23:16:01;4.85;;;4.07;;
37131;SDS011;23035;50.032;21.978;2023-05-21T23:21:07;9.00;;;5.13;;
37131;SDS011;23035;50.032;21.978;2023-05-21T23:26:11;8.25;;;4.75;;
37131;SDS011;23035;50.032;21.978;2023-05-21T23:31:15;8.85;;;4.10;;
37131;SDS011;23035;50.032;21.978;2023-05-21T23:36:21;13.38;;;4.60;;
37131;SDS011;23035;50.032;21.978;2023-05-21T23:41:25;9.57;;;4.40;;
37131;SDS011;23035;50.032;21.978;2023-05-21T23:46:29;8.45;;;4.72;;
37131;SDS011;23035;50.032;21.978;2023-05-21T23:51:35;6.72;;;4.80;;
37131;SDS011;23035;50.032;21.978;2023-05-21T23:56:39;8.82;;;5.10;;
